Time;durP1;ratioP1;P1;durP2;ratioP2;P2;SDS_P1;SDS_P2;PMS_P1;PMS_P2;Temp;Humidity;BMP_temperature;BMP_pressure;BME280_temperature;BME280_humidity;BME280_pressure;Samples;Min_cycle;Max_cycle;Signal;HPM_P1;HPM_P2
2022/08/17 00:00:35;;;;;;;52.97;47.88;;;;;;;;;;5104720;28;20070;-73
2022/08/17 00:03:03;;;;;;;55.15;49.47;;;;;;;;;;5107031;28;20040;-73
2022/08/17 00:05:30;;;;;;;52.80;47.30;;;;;;;;;;5116610;28;20047;-73
2022/08/17 00:07:56;;;;;;;51.70;46.50;;;;;;;;;;5111043;28;20574;-72
2022/08/17 00:10:22;;;;;;;53.25;47.78;;;;;;;;;;5107369;28;20035;-73
2022/08/17 00:12:48;;;;;;;53.80;48.85;;;;;;;;;;5104062;28;20085;-73
2022/08/17 00:15:15;;;;;;;52.65;47.15;;;;;;;;;;5115657;28;20047;-73
2022/08/17 00:17:41;;;;;;;52.83;47.60;;;;;;;;;;5109773;28;20062;-73
2022/08/17 00:20:08;;;;;;;52.58;47.45;;;;;;;;;;5124245;28;20047;-73
2022/08/17 00:22:34;;;;;;;53.20;47.90;;;;;;;;;;5098773;28;20489;-73
2022/08/17 00:25:00;;;;;;;49.88;45.17;;;;;;;;;;5110364;28;20432;-73
2022/08/17 00:27:26;;;;;;;48.03;43.30;;;;;;;;;;5105162;28;20044;-73
2022/08/17 00:29:52;;;;;;;50.08;45.42;;;;;;;;;;5113191;28;20032;-73
2022/08/17 00:32:18;;;;;;;52.05;46.97;;;;;;;;;;5104773;28;20093;-73
2022/08/17 00:34:44;;;;;;;47.25;42.78;;;;;;;;;;5086535;28;20051;-72
2022/08/17 00:37:10;;;;;;;48.28;43.58;;;;;;;;;;5095189;28;20073;-73
2022/08/17 00:39:36;;;;;;;47.40;42.90;;;;;;;;;;5110613;28;20032;-73
2022/08/17 00:42:11;;;;;;;46.47;41.75;;;;;;;;;;5104220;28;20036;-73
2022/08/17 00:44:37;;;;;;;45.70;41.30;;;;;;;;;;5105879;28;20047;-73
2022/08/17 00:47:03;;;;;;;47.15;42.53;;;;;;;;;;5108780;28;20669;-73
2022/08/17 00:49:30;;;;;;;47.67;42.95;;;;;;;;;;5106759;28;20051;-73
2022/08/17 00:51:59;;;;;;;49.95;44.55;;;;;;;;;;5112781;28;20088;-73
2022/08/17 00:54:30;;;;;;;48.63;43.58;;;;;;;;;;5114837;28;20509;-74
2022/08/17 00:56:59;;;;;;;47.15;42.45;;;;;;;;;;5114342;28;20078;-73
2022/08/17 00:59:29;;;;;;;49.17;44.28;;;;;;;;;;5122492;28;20043;-73
2022/08/17 01:01:55;;;;;;;49.38;44.63;;;;;;;;;;5110202;28;20051;-74
2022/08/17 01:04:21;;;;;;;54.50;48.70;;;;;;;;;;5108948;28;20040;-74
2022/08/17 01:06:48;;;;;;;52.83;47.15;;;;;;;;;;5116925;28;20036;-73
2022/08/17 01:09:15;;;;;;;54.05;48.65;;;;;;;;;;5119299;28;20039;-74
2022/08/17 01:11:41;;;;;;;52.53;47.10;;;;;;;;;;5107177;28;20047;-73
2022/08/17 01:14:07;;;;;;;52.22;47.17;;;;;;;;;;5084918;28;20076;-73
2022/08/17 01:16:34;;;;;;;52.97;47.35;;;;;;;;;;5105641;28;20498;-73
2022/08/17 01:19:01;;;;;;;53.35;47.63;;;;;;;;;;5107115;28;20050;-73
2022/08/17 01:21:46;;;;;;;54.20;47.10;;;;;;;;;;5106744;28;20044;-72
2022/08/17 01:24:12;;;;;;;54.22;48.50;;;;;;;;;;5086050;28;20058;-73
2022/08/17 01:26:39;;;;;;;53.65;47.80;;;;;;;;;;5119898;28;20044;-73
2022/08/17 01:29:06;;;;;;;54.95;49.55;;;;;;;;;;5113573;28;20050;-72
2022/08/17 01:31:38;;;;;;;54.38;48.58;;;;;;;;;;5105612;28;20101;-72
2022/08/17 01:34:09;;;;;;;51.78;46.42;;;;;;;;;;5114905;28;20067;-72
2022/08/17 01:36:39;;;;;;;50.37;45.30;;;;;;;;;;5105451;28;20068;-73
2022/08/17 01:39:06;;;;;;;51.15;46.13;;;;;;;;;;5107048;28;20871;-72
2022/08/17 01:41:32;;;;;;;50.10;44.92;;;;;;;;;;5098856;28;20040;-73
2022/08/17 01:44:00;;;;;;;51.45;46.25;;;;;;;;;;5111625;28;20052;-73
2022/08/17 01:46:27;;;;;;;50.53;45.63;;;;;;;;;;5125124;28;20035;-73
2022/08/17 01:48:55;;;;;;;50.67;45.47;;;;;;;;;;5111689;28;20123;-73
2022/08/17 01:51:21;;;;;;;49.05;44.25;;;;;;;;;;5115261;28;20036;-72
2022/08/17 01:53:49;;;;;;;47.85;43.05;;;;;;;;;;5101800;28;20098;-73
2022/08/17 01:56:18;;;;;;;46.90;42.20;;;;;;;;;;5106399;28;20048;-72
2022/08/17 01:58:44;;;;;;;44.92;40.47;;;;;;;;;;5107028;28;20043;-72
2022/08/17 02:01:13;;;;;;;44.35;40.03;;;;;;;;;;5113841;28;20043;-72
2022/08/17 02:03:40;;;;;;;45.38;40.83;;;;;;;;;;5103020;28;20040;-73
2022/08/17 02:06:07;;;;;;;45.47;40.85;;;;;;;;;;5097654;28;20040;-73
2022/08/17 02:08:34;;;;;;;47.28;42.47;;;;;;;;;;5101582;28;20044;-73
2022/08/17 02:11:01;;;;;;;47.38;42.90;;;;;;;;;;5068516;28;20048;-73
2022/08/17 02:13:28;;;;;;;47.75;42.85;;;;;;;;;;5103387;28;20051;-73
2022/08/17 02:15:55;;;;;;;45.88;41.25;;;;;;;;;;5118716;28;20045;-73
2022/08/17 02:18:21;;;;;;;44.88;40.58;;;;;;;;;;5110934;28;20047;-73
2022/08/17 02:20:47;;;;;;;44.00;39.42;;;;;;;;;;5117785;28;20039;-73
2022/08/17 02:23:13;;;;;;;39.15;35.50;;;;;;;;;;5100517;28;20071;-73
2022/08/17 02:25:42;;;;;;;41.08;37.17;;;;;;;;;;5099892;28;20566;-73
2022/08/17 02:28:08;;;;;;;42.47;38.33;;;;;;;;;;5109379;28;20075;-73
2022/08/17 02:30:35;;;;;;;38.47;34.80;;;;;;;;;;5104943;28;20517;-72
2022/08/17 02:33:01;;;;;;;38.13;34.65;;;;;;;;;;5108603;28;20096;-73
2022/08/17 02:35:27;;;;;;;46.97;42.35;;;;;;;;;;5116530;28;20504;-73
2022/08/17 02:37:53;;;;;;;43.78;39.40;;;;;;;;;;5119099;28;20036;-73
2022/08/17 02:40:20;;;;;;;45.28;40.78;;;;;;;;;;5108038;28;20039;-73
2022/08/17 02:42:48;;;;;;;47.42;42.72;;;;;;;;;;5103348;28;20071;-73
2022/08/17 02:45:16;;;;;;;43.30;39.38;;;;;;;;;;5108712;28;20036;-73
2022/08/17 02:47:42;;;;;;;45.72;41.42;;;;;;;;;;5117463;28;20075;-73
2022/08/17 02:50:09;;;;;;;43.78;39.65;;;;;;;;;;5119266;28;20035;-73
2022/08/17 02:52:36;;;;;;;45.72;41.42;;;;;;;;;;5113267;28;20047;-73
2022/08/17 02:55:07;;;;;;;50.58;45.45;;;;;;;;;;5113313;28;20047;-73
2022/08/17 02:57:33;;;;;;;48.63;43.70;;;;;;;;;;5121062;28;20178;-73
2022/08/17 02:59:59;;;;;;;50.85;45.65;;;;;;;;;;5109588;28;20188;-73
2022/08/17 03:02:26;;;;;;;49.80;44.90;;;;;;;;;;5105624;28;20044;-73
2022/08/17 03:04:52;;;;;;;52.17;46.63;;;;;;;;;;5114473;28;20065;-72
2022/08/17 03:07:19;;;;;;;52.72;47.30;;;;;;;;;;5124559;28;20053;-73
2022/08/17 03:09:45;;;;;;;50.95;45.72;;;;;;;;;;5096585;28;20413;-73
2022/08/17 03:12:12;;;;;;;52.80;47.55;;;;;;;;;;5105665;28;20047;-73
2022/08/17 03:14:42;;;;;;;52.90;47.47;;;;;;;;;;5114048;28;20033;-72
2022/08/17 03:17:10;;;;;;;52.58;47.20;;;;;;;;;;5112854;28;20032;-73
2022/08/17 03:19:36;;;;;;;54.50;49.00;;;;;;;;;;5101828;28;20481;-73
2022/08/17 03:22:04;;;;;;;54.40;48.50;;;;;;;;;;5109753;28;20083;-74
2022/08/17 03:24:30;;;;;;;54.40;48.83;;;;;;;;;;5110449;28;20127;-73
2022/08/17 03:26:56;;;;;;;53.13;47.75;;;;;;;;;;5105440;28;20071;-73
2022/08/17 03:29:22;;;;;;;50.90;45.90;;;;;;;;;;5104398;28;20040;-73
2022/08/17 03:31:49;;;;;;;52.33;47.08;;;;;;;;;;5086770;28;20044;-73
2022/08/17 03:34:15;;;;;;;51.90;46.75;;;;;;;;;;5106455;28;20386;-73
2022/08/17 03:36:41;;;;;;;50.05;45.00;;;;;;;;;;5106266;28;20110;-73
2022/08/17 03:39:07;;;;;;;52.67;47.13;;;;;;;;;;5112495;28;20040;-73
2022/08/17 03:41:33;;;;;;;53.88;48.13;;;;;;;;;;5114586;28;20047;-73
2022/08/17 03:43:59;;;;;;;56.97;50.60;;;;;;;;;;5119005;28;20019;-73
2022/08/17 03:57:26;;;;;;;54.05;48.15;;;;;;;;;;5105252;28;20052;-73
2022/08/17 03:59:53;;;;;;;56.70;50.45;;;;;;;;;;5103683;28;20078;-73
2022/08/17 04:02:28;;;;;;;55.05;48.45;;;;;;;;;;5088040;28;20036;-73
2022/08/17 04:04:54;;;;;;;53.85;48.38;;;;;;;;;;5102486;28;20040;-73
2022/08/17 04:07:21;;;;;;;50.22;45.15;;;;;;;;;;5095678;28;20051;-73
2022/08/17 04:09:48;;;;;;;52.58;47.13;;;;;;;;;;5074457;28;20040;-73
2022/08/17 04:12:14;;;;;;;49.35;44.45;;;;;;;;;;5111400;28;20047;-73
2022/08/17 04:14:41;;;;;;;51.80;46.47;;;;;;;;;;5096580;28;20129;-73
2022/08/17 04:17:07;;;;;;;51.78;46.47;;;;;;;;;;5101490;28;20047;-73
2022/08/17 04:19:33;;;;;;;49.35;44.17;;;;;;;;;;5108015;28;20032;-72
2022/08/17 04:22:00;;;;;;;52.40;46.72;;;;;;;;;;5101470;28;20055;-73
2022/08/17 04:24:26;;;;;;;52.38;46.67;;;;;;;;;;5103792;28;20054;-73
2022/08/17 04:26:53;;;;;;;51.30;46.10;;;;;;;;;;5108074;28;20445;-73
2022/08/17 04:29:20;;;;;;;55.92;49.88;;;;;;;;;;5078474;28;20219;-73
2022/08/17 04:31:46;;;;;;;54.28;48.60;;;;;;;;;;5099756;28;20604;-73
2022/08/17 04:34:12;;;;;;;53.08;47.60;;;;;;;;;;5102305;28;20051;-73
2022/08/17 04:36:38;;;;;;;57.05;51.03;;;;;;;;;;5090787;28;20051;-72
2022/08/17 04:39:04;;;;;;;56.20;50.08;;;;;;;;;;5101453;28;20386;-73
2022/08/17 04:44:15;;;;;;;57.47;51.17;;;;;;;;;;5102952;28;20422;-72
2022/08/17 04:46:41;;;;;;;53.50;48.00;;;;;;;;;;5102047;28;20059;-72
2022/08/17 04:49:09;;;;;;;57.67;51.55;;;;;;;;;;5102762;28;20051;-72
2022/08/17 04:51:36;;;;;;;53.55;47.95;;;;;;;;;;5103910;28;20047;-73
2022/08/17 04:54:07;;;;;;;57.78;51.45;;;;;;;;;;5089423;28;20168;-73
2022/08/17 04:56:34;;;;;;;57.55;50.35;;;;;;;;;;5106718;28;20062;-72
2022/08/17 04:59:02;;;;;;;56.17;50.17;;;;;;;;;;5101942;28;20056;-73
2022/08/17 05:01:29;;;;;;;56.95;51.03;;;;;;;;;;5100615;28;20093;-74
2022/08/17 05:03:58;;;;;;;57.95;51.63;;;;;;;;;;5100823;28;20059;-74
2022/08/17 05:06:25;;;;;;;58.63;52.22;;;;;;;;;;5114357;28;20036;-74
2022/08/17 05:08:51;;;;;;;57.80;51.67;;;;;;;;;;5115936;28;20039;-74
2022/08/17 05:11:17;;;;;;;59.17;52.78;;;;;;;;;;5098763;28;20063;-74
2022/08/17 05:13:43;;;;;;;59.00;52.53;;;;;;;;;;5097807;28;20048;-74
2022/08/17 05:16:09;;;;;;;57.47;51.38;;;;;;;;;;5101470;28;20489;-74
2022/08/17 05:18:37;;;;;;;55.38;49.65;;;;;;;;;;5100042;28;20139;-74
2022/08/17 05:21:03;;;;;;;55.47;49.47;;;;;;;;;;5097147;28;20044;-73
2022/08/17 05:23:30;;;;;;;53.22;47.83;;;;;;;;;;5101918;28;20046;-74
2022/08/17 05:25:57;;;;;;;54.33;48.72;;;;;;;;;;5107704;28;20040;-74
2022/08/17 05:28:24;;;;;;;57.78;51.67;;;;;;;;;;5100245;28;20055;-74
2022/08/17 05:30:51;;;;;;;56.72;50.70;;;;;;;;;;5105370;28;20512;-74
2022/08/17 05:33:18;;;;;;;55.83;50.05;;;;;;;;;;5099790;28;20051;-73
2022/08/17 05:35:46;;;;;;;57.63;51.47;;;;;;;;;;5116620;28;20040;-73
2022/08/17 05:38:16;;;;;;;54.80;48.95;;;;;;;;;;5110626;28;20036;-74
2022/08/17 05:40:42;;;;;;;59.00;50.08;;;;;;;;;;5109344;28;20180;-73
2022/08/17 05:43:19;;;;;;;60.38;50.08;;;;;;;;;;5118226;28;20035;-73
2022/08/17 05:45:48;;;;;;;54.65;48.72;;;;;;;;;;5083973;28;20486;-74
2022/08/17 05:48:15;;;;;;;57.38;51.38;;;;;;;;;;5104944;28;20040;-73
2022/08/17 05:50:53;;;;;;;59.33;53.05;;;;;;;;;;5115735;28;20082;-73
2022/08/17 05:53:38;;;;;;;57.58;51.17;;;;;;;;;;5104478;28;20051;-74
2022/08/17 05:56:06;;;;;;;57.42;51.33;;;;;;;;;;5111008;28;20051;-74
2022/08/17 05:59:11;;;;;;;60.45;53.67;;;;;;;;;;5108802;28;20122;-74
2022/08/17 06:01:51;;;;;;;59.85;53.38;;;;;;;;;;5074883;28;20406;-74
2022/08/17 06:04:31;;;;;;;58.75;52.40;;;;;;;;;;5069597;28;20054;-73
2022/08/17 06:07:15;;;;;;;66.80;56.53;;;;;;;;;;5062111;28;20542;-74
2022/08/17 06:09:48;;;;;;;68.57;57.42;;;;;;;;;;5054873;28;20068;-74
2022/08/17 06:12:33;;;;;;;64.05;55.45;;;;;;;;;;5064589;28;20064;-74
2022/08/17 06:15:06;;;;;;;65.85;54.22;;;;;;;;;;5068535;28;20028;-73
2022/08/17 06:17:33;;;;;;;65.63;57.42;;;;;;;;;;5069494;28;20043;-72
2022/08/17 06:20:01;;;;;;;50.78;45.45;;;;;;;;;;5086557;28;20055;-72
2022/08/17 06:22:32;;;;;;;60.15;53.42;;;;;;;;;;5062366;28;20049;-72
2022/08/17 06:25:04;;;;;;;51.67;46.35;;;;;;;;;;5089396;28;20144;-73
2022/08/17 06:27:45;;;;;;;60.20;53.72;;;;;;;;;;5097591;28;20035;-73
2022/08/17 06:30:13;;;;;;;60.75;52.28;;;;;;;;;;5079407;28;20049;-73
2022/08/17 06:32:43;;;;;;;57.63;51.08;;;;;;;;;;5107584;28;20093;-73
2022/08/17 06:35:12;;;;;;;56.93;50.97;;;;;;;;;;5137331;27;20031;-73
2022/08/17 06:37:38;;;;;;;61.70;55.03;;;;;;;;;;5139642;27;20788;-73
2022/08/17 06:40:07;;;;;;;55.90;49.90;;;;;;;;;;5127654;27;20016;-73
2022/08/17 06:42:46;;;;;;;61.75;55.10;;;;;;;;;;5120001;28;20016;-73
2022/08/17 06:45:22;;;;;;;59.90;53.47;;;;;;;;;;5105835;28;20095;-73
2022/08/17 06:47:58;;;;;;;54.00;48.33;;;;;;;;;;5121125;27;20076;-73
2022/08/17 06:50:26;;;;;;;57.67;50.42;;;;;;;;;;5113223;28;20087;-73
2022/08/17 06:53:10;;;;;;;54.95;48.60;;;;;;;;;;5130125;27;20055;-72
2022/08/17 06:55:55;;;;;;;52.33;46.83;;;;;;;;;;5109449;28;20091;-73
2022/08/17 06:58:23;;;;;;;51.50;46.20;;;;;;;;;;5123634;27;20088;-72
2022/08/17 07:00:51;;;;;;;51.15;46.00;;;;;;;;;;5121651;28;20032;-73
2022/08/17 07:03:20;;;;;;;52.88;47.30;;;;;;;;;;5114312;28;20049;-73
2022/08/17 07:06:13;;;;;;;49.53;44.53;;;;;;;;;;5116355;28;20036;-73
2022/08/17 07:09:08;;;;;;;52.97;47.45;;;;;;;;;;5113172;28;20036;-73
2022/08/17 07:11:39;;;;;;;51.58;46.10;;;;;;;;;;5108929;28;20061;-74
2022/08/17 07:14:13;;;;;;;54.40;48.47;;;;;;;;;;5131928;28;20048;-73
2022/08/17 07:16:42;;;;;;;51.15;45.90;;;;;;;;;;5129970;28;20073;-72
2022/08/17 07:19:08;;;;;;;50.03;44.75;;;;;;;;;;5133891;28;20043;-73
2022/08/17 07:21:53;;;;;;;49.17;44.10;;;;;;;;;;5122154;28;20034;-75
2022/08/17 07:24:29;;;;;;;48.60;43.78;;;;;;;;;;5125583;28;20070;-73
2022/08/17 07:27:05;;;;;;;48.53;43.53;;;;;;;;;;5119150;28;20035;-72
2022/08/17 07:29:36;;;;;;;51.30;46.28;;;;;;;;;;5122457;28;20035;-73
2022/08/17 07:32:02;;;;;;;53.80;48.30;;;;;;;;;;5127567;27;20040;-74
2022/08/17 07:34:28;;;;;;;47.50;43.00;;;;;;;;;;5105923;28;20027;-73
2022/08/17 07:37:04;;;;;;;51.03;45.85;;;;;;;;;;5131415;28;20039;-73
2022/08/17 07:39:30;;;;;;;46.42;41.90;;;;;;;;;;5130278;28;20051;-73
2022/08/17 07:42:03;;;;;;;47.42;42.95;;;;;;;;;;5132605;28;20052;-73
2022/08/17 07:44:29;;;;;;;46.17;41.65;;;;;;;;;;5098005;28;20467;-72
2022/08/17 07:49:48;;;;;;;43.95;39.72;;;;;;;;;;5134462;28;20089;-74
2022/08/17 07:52:28;;;;;;;43.92;39.55;;;;;;;;;;5112399;28;20040;-74
2022/08/17 07:54:55;;;;;;;41.47;37.55;;;;;;;;;;5128437;27;20084;-73
2022/08/17 07:57:22;;;;;;;42.50;38.60;;;;;;;;;;5131856;27;20050;-74
2022/08/17 08:00:01;;;;;;;42.47;38.28;;;;;;;;;;5123761;28;20068;-73
2022/08/17 08:02:37;;;;;;;42.50;38.58;;;;;;;;;;5121407;28;20035;-74
2022/08/17 08:05:22;;;;;;;38.83;35.20;;;;;;;;;;5124785;28;20047;-73
2022/08/17 08:07:48;;;;;;;37.83;34.25;;;;;;;;;;5116173;28;20040;-73
2022/08/17 08:10:28;;;;;;;37.83;34.30;;;;;;;;;;5109981;28;20139;-74
2022/08/17 08:13:06;;;;;;;34.45;31.23;;;;;;;;;;5115447;28;20040;-72
2022/08/17 08:15:38;;;;;;;32.85;29.75;;;;;;;;;;5119349;28;20088;-73
2022/08/17 08:18:05;;;;;;;36.03;32.47;;;;;;;;;;5129409;28;20024;-73
2022/08/17 08:20:48;;;;;;;33.00;29.83;;;;;;;;;;5115301;28;20055;-74
2022/08/17 08:23:33;;;;;;;32.25;29.35;;;;;;;;;;5118426;28;20047;-73
2022/08/17 08:26:19;;;;;;;28.98;26.38;;;;;;;;;;5116387;28;20060;-74
2022/08/17 08:28:49;;;;;;;28.00;25.40;;;;;;;;;;5094196;28;20037;-75
2022/08/17 08:31:24;;;;;;;25.92;23.23;;;;;;;;;;5106512;28;20044;-75
2022/08/17 08:33:55;;;;;;;25.30;22.80;;;;;;;;;;5117967;28;20047;-74
2022/08/17 08:36:39;;;;;;;24.20;21.90;;;;;;;;;;5112065;28;20558;-74
2022/08/17 08:39:17;;;;;;;23.58;21.42;;;;;;;;;;5097509;28;20048;-74
2022/08/17 08:42:03;;;;;;;23.35;21.00;;;;;;;;;;5118209;28;20028;-74
2022/08/17 08:44:49;;;;;;;21.60;19.55;;;;;;;;;;5127680;27;20042;-74
2022/08/17 08:47:21;;;;;;;20.48;18.58;;;;;;;;;;5124133;27;20039;-74
2022/08/17 08:49:56;;;;;;;19.63;17.67;;;;;;;;;;5119387;27;20039;-74
2022/08/17 08:52:32;;;;;;;21.30;19.10;;;;;;;;;;5101456;28;20095;-74
2022/08/17 08:55:07;;;;;;;22.45;20.38;;;;;;;;;;5117684;28;20056;-74
2022/08/17 08:57:36;;;;;;;22.40;20.20;;;;;;;;;;5098616;28;20035;-75
2022/08/17 09:00:07;;;;;;;22.48;19.83;;;;;;;;;;5123062;28;20040;-74
2022/08/17 09:02:33;;;;;;;;;;;;;;;;;;5117097;28;20092;-74
2022/08/17 09:05:11;;;;;;;22.05;20.05;;;;;;;;;;5136488;27;19934;-74
2022/08/17 09:07:57;;;;;;;21.55;19.55;;;;;;;;;;5125545;27;20020;-74
2022/08/17 09:10:26;;;;;;;21.73;19.83;;;;;;;;;;5117387;27;20024;-74
2022/08/17 09:12:58;;;;;;;21.20;19.20;;;;;;;;;;5122582;27;20024;-74
2022/08/17 09:15:26;;;;;;;20.17;18.15;;;;;;;;;;5124654;27;20040;-74
2022/08/17 09:18:15;;;;;;;18.10;16.23;;;;;;;;;;5117281;28;20038;-74
2022/08/17 09:20:46;;;;;;;17.52;15.85;;;;;;;;;;5112735;27;20040;-75
2022/08/17 09:23:18;;;;;;;18.42;16.10;;;;;;;;;;5124976;28;20020;-75
2022/08/17 09:25:54;;;;;;;18.80;16.15;;;;;;;;;;5135527;27;20041;-74
2022/08/17 09:28:26;;;;;;;18.48;16.52;;;;;;;;;;5117355;28;20065;-74
2022/08/17 09:30:54;;;;;;;18.60;16.80;;;;;;;;;;5118732;28;20036;-75
2022/08/17 09:33:25;;;;;;;18.20;16.50;;;;;;;;;;5102839;27;20053;-74
2022/08/17 09:35:51;;;;;;;;;;;;;;;;;;5118369;28;20047;-74
2022/08/17 09:38:24;;;;;;;19.05;17.35;;;;;;;;;;5120275;27;19908;-74
2022/08/17 09:41:11;;;;;;;18.80;17.05;;;;;;;;;;5113661;28;20048;-74
2022/08/17 09:43:50;;;;;;;18.55;16.85;;;;;;;;;;5082303;28;20104;-73
2022/08/17 09:46:21;;;;;;;18.23;16.52;;;;;;;;;;5116435;28;20059;-76
2022/08/17 09:48:54;;;;;;;19.73;18.00;;;;;;;;;;5115181;27;20028;-74
2022/08/17 09:51:41;;;;;;;22.83;20.73;;;;;;;;;;5122826;28;20020;-74
2022/08/17 09:54:23;;;;;;;22.60;20.33;;;;;;;;;;5102812;28;20353;-74
2022/08/17 09:56:49;;;;;;;23.63;21.40;;;;;;;;;;5114813;27;20044;-74
2022/08/17 09:59:18;;;;;;;23.67;21.48;;;;;;;;;;5135478;27;20079;-74
2022/08/17 10:01:44;;;;;;;23.85;21.52;;;;;;;;;;5122457;27;20079;-74
2022/08/17 10:04:26;;;;;;;24.38;21.88;;;;;;;;;;5120908;28;20020;-73
2022/08/17 10:06:57;;;;;;;26.40;23.80;;;;;;;;;;5117050;28;20070;-74
2022/08/17 10:09:35;;;;;;;25.40;22.67;;;;;;;;;;5120593;28;20036;-73
2022/08/17 10:12:19;;;;;;;25.42;22.85;;;;;;;;;;5101742;28;20032;-74
2022/08/17 10:14:57;;;;;;;25.95;23.35;;;;;;;;;;5127715;28;20046;-74
2022/08/17 10:17:42;;;;;;;24.40;21.90;;;;;;;;;;5132392;27;20057;-74
2022/08/17 10:20:08;;;;;;;24.45;22.05;;;;;;;;;;5090341;28;20032;-74
2022/08/17 10:28:16;;;;;;;26.70;23.90;;;;;;;;;;5127232;28;20052;-74
2022/08/17 10:30:50;;;;;;;26.50;23.95;;;;;;;;;;5109927;28;20489;-74
2022/08/17 10:33:20;;;;;;;27.33;24.65;;;;;;;;;;5102060;28;20032;-76
2022/08/17 10:35:46;;;;;;;27.10;24.27;;;;;;;;;;5118719;28;20074;-75
2022/08/17 10:38:28;;;;;;;27.85;25.05;;;;;;;;;;5116128;28;20044;-75
2022/08/17 10:40:54;;;;;;;27.80;24.85;;;;;;;;;;5131967;27;20036;-74
2022/08/17 10:43:21;;;;;;;30.70;27.45;;;;;;;;;;5111050;28;20047;-73
2022/08/17 10:46:10;;;;;;;32.72;29.20;;;;;;;;;;5132454;28;20055;-75
2022/08/17 10:48:37;;;;;;;32.58;29.20;;;;;;;;;;5119492;27;20062;-75
2022/08/17 10:51:06;;;;;;;32.63;29.38;;;;;;;;;;5118214;28;20047;-73
2022/08/17 10:53:32;;;;;;;34.45;28.88;;;;;;;;;;5129562;27;20035;-75
2022/08/17 10:56:14;;;;;;;33.17;29.73;;;;;;;;;;5113551;28;20032;-74
2022/08/17 10:58:48;;;;;;;34.47;30.95;;;;;;;;;;5112402;28;20045;-73
2022/08/17 11:01:14;;;;;;;33.60;30.20;;;;;;;;;;5095807;28;20048;-73
2022/08/17 11:03:54;;;;;;;38.55;33.97;;;;;;;;;;5089545;28;20048;-74
2022/08/17 11:06:20;;;;;;;37.78;33.95;;;;;;;;;;5114475;28;20058;-75
2022/08/17 11:08:46;;;;;;;40.95;36.58;;;;;;;;;;5121543;27;20028;-74
2022/08/17 11:11:18;;;;;;;43.40;38.58;;;;;;;;;;5126208;27;20051;-74
2022/08/17 11:14:05;;;;;;;42.83;38.30;;;;;;;;;;5127184;27;20075;-74
2022/08/17 11:16:33;;;;;;;43.00;38.40;;;;;;;;;;5133716;27;20058;-74
2022/08/17 11:19:19;;;;;;;42.20;37.70;;;;;;;;;;5121335;28;20024;-74
2022/08/17 11:22:04;;;;;;;44.55;39.92;;;;;;;;;;5126222;27;20031;-74
2022/08/17 11:24:35;;;;;;;44.80;40.05;;;;;;;;;;5125407;28;20024;-76
2022/08/17 11:27:01;;;;;;;;;;;;;;;;;;5115065;28;20092;-75
2022/08/17 11:29:36;;;;;;;45.38;40.65;;;;;;;;;;5097112;28;19927;-74
2022/08/17 11:32:12;;;;;;;47.72;42.78;;;;;;;;;;5117084;28;20061;-74
2022/08/17 11:34:39;;;;;;;48.50;43.38;;;;;;;;;;5101206;27;20040;-74
2022/08/17 11:37:20;;;;;;;49.80;44.60;;;;;;;;;;5137247;27;20276;-74
2022/08/17 11:39:46;;;;;;;;;;;;;;;;;;5113537;28;20054;-75
2022/08/17 11:42:41;;;;;;;51.53;46.20;;;;;;;;;;5114385;28;19907;-73
2022/08/17 11:45:07;;;;;;;52.38;46.78;;;;;;;;;;5033630;28;20053;-75
2022/08/17 11:53:52;;;;;;;54.92;49.35;;;;;;;;;;5042224;28;20033;-74
2022/08/17 11:56:40;;;;;;;53.90;48.50;;;;;;;;;;5049769;28;20029;-75
2022/08/17 11:59:25;;;;;;;56.97;50.88;;;;;;;;;;5025733;28;20029;-74
2022/08/17 12:01:55;;;;;;;56.35;50.55;;;;;;;;;;5045606;28;20072;-74
2022/08/17 12:04:21;;;;;;;56.35;50.60;;;;;;;;;;5050911;28;20033;-75
2022/08/17 12:07:14;;;;;;;57.42;51.55;;;;;;;;;;5048501;28;20053;-74
2022/08/17 12:09:42;;;;;;;57.55;51.80;;;;;;;;;;5047401;28;20056;-74
2022/08/17 12:12:11;;;;;;;57.67;51.80;;;;;;;;;;5052231;28;20086;-74
2022/08/17 12:14:38;;;;;;;57.20;51.42;;;;;;;;;;5050338;28;20045;-75
2022/08/17 12:17:04;;;;;;;59.28;52.85;;;;;;;;;;5032196;28;20037;-75
2022/08/17 12:19:32;;;;;;;56.90;50.85;;;;;;;;;;5054079;28;20029;-74
2022/08/17 12:21:58;;;;;;;56.35;50.80;;;;;;;;;;5103649;28;20047;-75
2022/08/17 12:24:24;;;;;;;57.75;51.85;;;;;;;;;;5129903;28;20113;-74
2022/08/17 12:26:57;;;;;;;58.08;51.90;;;;;;;;;;5115836;28;20044;-75
2022/08/17 12:29:23;;;;;;;58.55;52.53;;;;;;;;;;5103925;28;20849;-76
2022/08/17 12:31:51;;;;;;;61.25;54.67;;;;;;;;;;5108930;28;20059;-74
2022/08/17 12:34:22;;;;;;;58.35;52.35;;;;;;;;;;5132349;27;21174;-75
2022/08/17 12:36:50;;;;;;;58.08;52.33;;;;;;;;;;5124628;28;20055;-75
2022/08/17 12:39:21;;;;;;;59.13;52.92;;;;;;;;;;5104380;28;20032;-75
2022/08/17 12:41:49;;;;;;;58.65;52.83;;;;;;;;;;5118583;28;20032;-74
2022/08/17 12:44:22;;;;;;;57.95;52.17;;;;;;;;;;5125702;27;20087;-75
2022/08/17 12:47:09;;;;;;;55.10;49.67;;;;;;;;;;5114824;28;20036;-74
2022/08/17 12:49:37;;;;;;;58.05;52.05;;;;;;;;;;5126355;28;20207;-73
2022/08/17 12:52:13;;;;;;;54.45;48.78;;;;;;;;;;5133905;27;20043;-74
2022/08/17 12:54:49;;;;;;;54.22;48.90;;;;;;;;;;5126250;27;20053;-74
2022/08/17 12:57:20;;;;;;;53.45;48.25;;;;;;;;;;5097659;28;20040;-74
2022/08/17 12:59:49;;;;;;;51.63;46.63;;;;;;;;;;5122232;27;20035;-74
2022/08/17 13:02:27;;;;;;;50.60;45.75;;;;;;;;;;5114510;27;20044;-75
2022/08/17 13:04:55;;;;;;;48.83;44.05;;;;;;;;;;5115315;28;20024;-74
2022/08/17 13:07:30;;;;;;;46.50;42.15;;;;;;;;;;5120851;28;20084;-73
2022/08/17 13:09:56;;;;;;;44.83;40.63;;;;;;;;;;5117364;28;20052;-73
2022/08/17 13:12:27;;;;;;;42.80;38.63;;;;;;;;;;5123526;27;20044;-74
2022/08/17 13:14:53;;;;;;;43.10;39.13;;;;;;;;;;5119343;27;20028;-74
2022/08/17 13:17:31;;;;;;;42.40;38.53;;;;;;;;;;5130948;27;20047;-73
2022/08/17 13:19:57;;;;;;;41.90;38.00;;;;;;;;;;5123466;27;20047;-74
2022/08/17 13:22:24;;;;;;;40.45;36.55;;;;;;;;;;5101986;28;20023;-75
2022/08/17 13:24:53;;;;;;;40.40;36.65;;;;;;;;;;5112486;28;20023;-74
2022/08/17 13:27:19;;;;;;;40.25;36.53;;;;;;;;;;5112459;28;20043;-74
2022/08/17 13:29:47;;;;;;;38.60;35.00;;;;;;;;;;5093859;28;20024;-73
2022/08/17 13:32:36;;;;;;;39.47;35.53;;;;;;;;;;5122587;27;20055;-74
2022/08/17 13:35:22;;;;;;;39.28;35.30;;;;;;;;;;5122325;27;20035;-73
2022/08/17 13:38:00;;;;;;;38.83;35.28;;;;;;;;;;5134126;27;20042;-73
2022/08/17 13:40:28;;;;;;;37.03;33.35;;;;;;;;;;5121838;28;20123;-73
2022/08/17 13:42:55;;;;;;;36.25;32.85;;;;;;;;;;5114339;27;20031;-73
2022/08/17 13:45:30;;;;;;;34.28;31.02;;;;;;;;;;5104146;28;20142;-73
2022/08/17 13:48:08;;;;;;;34.35;31.00;;;;;;;;;;5112913;28;20033;-75
2022/08/17 13:50:40;;;;;;;34.55;31.13;;;;;;;;;;5098280;28;20056;-75
2022/08/17 13:53:21;;;;;;;36.33;32.72;;;;;;;;;;5115140;28;20086;-76
2022/08/17 13:55:50;;;;;;;35.42;32.13;;;;;;;;;;5118361;27;20039;-75
2022/08/17 13:58:20;;;;;;;35.78;32.20;;;;;;;;;;5114462;28;20058;-75
2022/08/17 14:00:47;;;;;;;36.85;33.17;;;;;;;;;;5132945;27;20027;-75
2022/08/17 14:03:14;;;;;;;35.05;31.58;;;;;;;;;;5129860;27;20035;-75
2022/08/17 14:05:40;;;;;;;34.63;31.13;;;;;;;;;;5113404;28;20046;-75
2022/08/17 14:08:06;;;;;;;37.60;33.85;;;;;;;;;;5123462;27;20043;-73
2022/08/17 14:10:34;;;;;;;36.45;33.17;;;;;;;;;;5114700;28;20028;-75
2022/08/17 14:13:00;;;;;;;36.67;33.38;;;;;;;;;;5118001;27;20032;-73
2022/08/17 14:15:26;;;;;;;37.03;33.53;;;;;;;;;;5110237;28;20024;-74
2022/08/17 14:17:52;;;;;;;34.70;31.38;;;;;;;;;;5113711;28;20046;-74
2022/08/17 14:20:19;;;;;;;33.17;30.08;;;;;;;;;;5112969;28;20031;-76
2022/08/17 14:22:48;;;;;;;33.80;30.50;;;;;;;;;;5123659;27;20027;-74
2022/08/17 14:25:17;;;;;;;32.92;29.77;;;;;;;;;;5134916;27;20047;-75
2022/08/17 14:27:43;;;;;;;32.50;29.40;;;;;;;;;;5134196;27;20027;-74
2022/08/17 14:30:09;;;;;;;31.27;28.35;;;;;;;;;;5131461;27;20073;-74
2022/08/17 14:32:36;;;;;;;31.73;28.50;;;;;;;;;;5131380;27;20096;-76
2022/08/17 14:35:04;;;;;;;35.05;28.48;;;;;;;;;;5113992;28;20327;-75
2022/08/17 14:37:30;;;;;;;31.45;28.25;;;;;;;;;;5132523;28;20028;-75
2022/08/17 14:40:00;;;;;;;30.75;27.75;;;;;;;;;;5138780;27;20047;-74
2022/08/17 14:42:29;;;;;;;29.75;26.85;;;;;;;;;;5131757;27;20051;-75
2022/08/17 14:44:57;;;;;;;29.98;27.17;;;;;;;;;;5129877;27;20035;-74
2022/08/17 14:47:25;;;;;;;30.45;27.55;;;;;;;;;;5128304;27;21044;-73
2022/08/17 14:49:51;;;;;;;30.02;27.13;;;;;;;;;;5116819;28;20050;-74
2022/08/17 14:52:20;;;;;;;30.85;27.55;;;;;;;;;;5117934;28;20031;-74
2022/08/17 14:54:47;;;;;;;30.67;27.25;;;;;;;;;;5131077;27;20043;-74
2022/08/17 14:57:16;;;;;;;30.13;27.10;;;;;;;;;;5138810;27;20047;-74
2022/08/17 14:59:42;;;;;;;32.20;28.83;;;;;;;;;;5130839;27;20059;-74
2022/08/17 15:02:09;;;;;;;31.33;28.17;;;;;;;;;;5107163;28;20059;-74
2022/08/17 15:04:35;;;;;;;34.85;31.35;;;;;;;;;;5107087;28;20044;-75
2022/08/17 15:07:02;;;;;;;25.67;22.98;;;;;;;;;;5103969;28;20051;-77